createdAt,value
2023-02-11T09:10:39.136Z,16.2
2023-02-11T09:20:45.703Z,16.6
2023-02-11T09:37:42.821Z,16.9
2023-02-11T09:47:56.167Z,19.9
2023-02-11T09:58:08.756Z,16.9
2023-02-11T10:08:21.064Z,16.7
2023-02-11T10:18:33.056Z,16.8
2023-02-11T10:28:44.980Z,17.1
2023-02-11T10:38:57.066Z,17.4
2023-02-11T10:49:07.648Z,17.4
2023-02-11T10:59:21.356Z,17.4
2023-02-11T11:09:28.067Z,18.3
2023-02-11T11:19:37.854Z,17.5
2023-02-11T11:29:45.887Z,18.1
2023-02-11T11:39:54.268Z,17.4
2023-02-11T11:50:00.998Z,17.5
2023-02-11T12:00:07.190Z,17.3
2023-02-11T12:10:11.154Z,15.9
2023-02-11T12:20:16.119Z,17.3
2023-02-11T12:30:20.528Z,16.6
2023-02-11T12:40:22.577Z,16.3
2023-02-11T12:50:23.178Z,16.2
2023-02-11T13:00:22.980Z,15.9
2023-02-11T13:10:22.955Z,15.9
2023-02-11T13:20:22.839Z,15.8
2023-02-11T13:30:22.914Z,15.8
2023-02-11T13:40:22.926Z,15.5
2023-02-11T13:50:22.381Z,15.5
2023-02-11T14:00:22.104Z,15.4
2023-02-11T14:10:22.388Z,15.4
2023-02-11T14:20:22.904Z,15.3
2023-02-11T14:30:23.358Z,15.3
2023-02-11T14:40:22.422Z,15
2023-02-11T14:50:22.510Z,14.9
2023-02-11T15:10:08.259Z,14.4
2023-02-11T15:20:08.690Z,14.4
2023-02-11T15:30:10.064Z,14.9
2023-02-11T15:40:10.142Z,14.1
2023-02-11T15:50:10.717Z,14.6
2023-02-11T16:00:10.332Z,14.1
2023-02-11T16:10:12.249Z,14.4
2023-02-11T16:20:14.165Z,14.2
2023-02-11T16:30:16.914Z,14.1
2023-02-11T16:40:19.695Z,14.1
2023-02-11T16:50:22.412Z,14.1
2023-02-11T17:00:24.418Z,14
2023-02-11T17:10:25.910Z,13.9
2023-02-11T17:20:27.325Z,13.6
2023-02-11T17:30:28.961Z,13.6
2023-02-11T17:40:30.120Z,13.8
2023-02-11T17:50:31.697Z,13.6
2023-02-11T18:00:33.328Z,13.6
2023-02-11T18:10:34.726Z,13.5
2023-02-11T18:20:36.187Z,13.5
2023-02-11T18:30:37.667Z,13.4
2023-02-11T18:40:39.037Z,13.4
2023-02-11T18:50:40.475Z,13.4
2023-02-11T19:00:41.833Z,13.4
2023-02-11T19:10:43.140Z,13.3
2023-02-11T19:20:44.478Z,13.4
2023-02-11T19:30:45.741Z,13.3
2023-02-11T19:40:46.992Z,13.3
2023-02-11T19:50:48.394Z,13.3
2023-02-11T20:00:49.783Z,13.3
2023-02-11T20:10:51.056Z,13.3
2023-02-11T20:20:52.401Z,13.2
2023-02-11T20:30:53.994Z,13.3
2023-02-11T20:40:55.283Z,13.3
2023-02-11T20:50:56.606Z,13.3
2023-02-11T21:10:11.572Z,13.1
2023-02-11T21:20:13.273Z,13.2
2023-02-11T21:30:15.521Z,13.1
2023-02-11T21:40:17.873Z,13.1
2023-02-11T21:50:20.273Z,13.1
2023-02-11T22:00:22.649Z,13.2
2023-02-11T22:10:26.249Z,13.1
2023-02-11T22:20:30.462Z,13.3
2023-02-11T22:30:33.425Z,13.4
2023-02-11T22:40:36.960Z,13.2
2023-02-11T22:50:40.539Z,13.3
2023-02-11T23:00:43.497Z,13.3
2023-02-11T23:10:45.785Z,13.3
2023-02-11T23:20:47.956Z,13.2
2023-02-11T23:30:50.331Z,13.3
2023-02-11T23:40:52.544Z,13.3
2023-02-11T23:50:54.884Z,13.3
